sensor_id;sensor_type;location;lat;lon;timestamp;temperature;humidity
29539;DHT22;16482;51.046;4.498;2023-09-19T00:01:47;26.30;47.30
29539;DHT22;16482;51.046;4.498;2023-09-19T00:04:13;26.30;47.40
29539;DHT22;16482;51.046;4.498;2023-09-19T00:06:40;26.30;47.30
29539;DHT22;16482;51.046;4.498;2023-09-19T00:09:06;26.30;47.20
29539;DHT22;16482;51.046;4.498;2023-09-19T00:11:36;26.20;47.10
29539;DHT22;16482;51.046;4.498;2023-09-19T00:14:03;26.20;47.00
29539;DHT22;16482;51.046;4.498;2023-09-19T00:16:33;26.30;46.90
29539;DHT22;16482;51.046;4.498;2023-09-19T00:18:59;26.30;46.90
29539;DHT22;16482;51.046;4.498;2023-09-19T00:21:31;26.20;46.80
29539;DHT22;16482;51.046;4.498;2023-09-19T00:23:57;26.30;46.70
29539;DHT22;16482;51.046;4.498;2023-09-19T00:26:23;26.30;46.70
29539;DHT22;16482;51.046;4.498;2023-09-19T00:28:58;26.30;46.60
29539;DHT22;16482;51.046;4.498;2023-09-19T00:31:34;26.30;46.60
29539;DHT22;16482;51.046;4.498;2023-09-19T00:34:03;26.20;46.50
29539;DHT22;16482;51.046;4.498;2023-09-19T00:36:29;26.30;46.50
29539;DHT22;16482;51.046;4.498;2023-09-19T00:38:59;26.20;46.50
29539;DHT22;16482;51.046;4.498;2023-09-19T00:41:28;26.30;46.60
29539;DHT22;16482;51.046;4.498;2023-09-19T00:43:57;26.20;46.40
29539;DHT22;16482;51.046;4.498;2023-09-19T00:46:29;26.20;46.50
29539;DHT22;16482;51.046;4.498;2023-09-19T00:48:58;26.30;46.30
29539;DHT22;16482;51.046;4.498;2023-09-19T00:51:27;26.30;46.20
29539;DHT22;16482;51.046;4.498;2023-09-19T00:53:56;26.20;46.30
29539;DHT22;16482;51.046;4.498;2023-09-19T00:56:24;26.20;46.30
29539;DHT22;16482;51.046;4.498;2023-09-19T00:58:50;26.20;46.30
29539;DHT22;16482;51.046;4.498;2023-09-19T01:01:19;26.20;46.30
29539;DHT22;16482;51.046;4.498;2023-09-19T01:03:45;26.20;46.20
29539;DHT22;16482;51.046;4.498;2023-09-19T01:06:14;26.20;46.20
29539;DHT22;16482;51.046;4.498;2023-09-19T01:08:40;26.20;46.20
29539;DHT22;16482;51.046;4.498;2023-09-19T01:11:09;26.20;46.30
29539;DHT22;16482;51.046;4.498;2023-09-19T01:14:09;26.20;46.10
29539;DHT22;16482;51.046;4.498;2023-09-19T01:16:48;26.30;46.00
29539;DHT22;16482;51.046;4.498;2023-09-19T01:22:37;26.10;46.00
29539;DHT22;16482;51.046;4.498;2023-09-19T01:29:52;26.10;46.00
29539;DHT22;16482;51.046;4.498;2023-09-19T01:32:26;26.10;46.10
29539;DHT22;16482;51.046;4.498;2023-09-19T01:34:56;26.10;46.00
29539;DHT22;16482;51.046;4.498;2023-09-19T01:37:24;26.10;45.90
29539;DHT22;16482;51.046;4.498;2023-09-19T01:40:11;26.10;46.00
29539;DHT22;16482;51.046;4.498;2023-09-19T01:42:57;26.20;45.90
29539;DHT22;16482;51.046;4.498;2023-09-19T01:50:58;26.10;45.90
29539;DHT22;16482;51.046;4.498;2023-09-19T01:53:33;26.10;45.90
29539;DHT22;16482;51.046;4.498;2023-09-19T01:56:02;26.10;45.90
29539;DHT22;16482;51.046;4.498;2023-09-19T01:58:48;26.10;45.80
29539;DHT22;16482;51.046;4.498;2023-09-19T02:01:20;26.20;45.90
29539;DHT22;16482;51.046;4.498;2023-09-19T02:03:58;26.10;45.80
29539;DHT22;16482;51.046;4.498;2023-09-19T02:06:26;26.10;45.90
29539;DHT22;16482;51.046;4.498;2023-09-19T02:08:54;26.10;45.80
29539;DHT22;16482;51.046;4.498;2023-09-19T02:11:20;26.10;45.80
29539;DHT22;16482;51.046;4.498;2023-09-19T02:13:46;26.10;45.90
29539;DHT22;16482;51.046;4.498;2023-09-19T02:16:11;26.10;45.90
29539;DHT22;16482;51.046;4.498;2023-09-19T02:18:38;26.10;45.90
29539;DHT22;16482;51.046;4.498;2023-09-19T02:21:04;26.10;45.90
29539;DHT22;16482;51.046;4.498;2023-09-19T02:23:33;26.10;46.00
29539;DHT22;16482;51.046;4.498;2023-09-19T02:25:59;26.10;46.00
29539;DHT22;16482;51.046;4.498;2023-09-19T02:28:29;26.10;45.90
29539;DHT22;16482;51.046;4.498;2023-09-19T02:31:00;26.10;45.90
29539;DHT22;16482;51.046;4.498;2023-09-19T02:33:26;26.10;45.80
29539;DHT22;16482;51.046;4.498;2023-09-19T02:35:56;26.10;45.80
29539;DHT22;16482;51.046;4.498;2023-09-19T02:38:27;26.10;45.70
29539;DHT22;16482;51.046;4.498;2023-09-19T02:40:53;26.10;45.80
29539;DHT22;16482;51.046;4.498;2023-09-19T02:43:23;26.10;45.60
29539;DHT22;16482;51.046;4.498;2023-09-19T02:45:51;26.10;45.70
29539;DHT22;16482;51.046;4.498;2023-09-19T02:48:20;26.10;45.50
29539;DHT22;16482;51.046;4.498;2023-09-19T02:50:49;26.10;45.50
29539;DHT22;16482;51.046;4.498;2023-09-19T02:53:17;26.00;45.50
29539;DHT22;16482;51.046;4.498;2023-09-19T02:55:44;26.10;45.50
29539;DHT22;16482;51.046;4.498;2023-09-19T02:58:13;26.10;45.60
29539;DHT22;16482;51.046;4.498;2023-09-19T03:00:40;26.10;45.40
29539;DHT22;16482;51.046;4.498;2023-09-19T03:03:07;26.10;45.50
29539;DHT22;16482;51.046;4.498;2023-09-19T03:05:34;26.10;45.40
29539;DHT22;16482;51.046;4.498;2023-09-19T03:08:00;26.10;45.40
29539;DHT22;16482;51.046;4.498;2023-09-19T03:10:27;26.00;45.30
29539;DHT22;16482;51.046;4.498;2023-09-19T03:12:57;26.10;45.50
29539;DHT22;16482;51.046;4.498;2023-09-19T03:15:25;26.00;45.40
29539;DHT22;16482;51.046;4.498;2023-09-19T03:17:51;26.10;45.50
29539;DHT22;16482;51.046;4.498;2023-09-19T03:20:18;26.00;45.40
29539;DHT22;16482;51.046;4.498;2023-09-19T03:22:46;26.10;45.40
29539;DHT22;16482;51.046;4.498;2023-09-19T03:25:15;26.00;45.40
29539;DHT22;16482;51.046;4.498;2023-09-19T03:27:42;26.10;45.30
29539;DHT22;16482;51.046;4.498;2023-09-19T03:30:08;26.10;45.30
29539;DHT22;16482;51.046;4.498;2023-09-19T03:32:35;26.10;45.90
29539;DHT22;16482;51.046;4.498;2023-09-19T03:35:02;26.10;45.20
29539;DHT22;16482;51.046;4.498;2023-09-19T03:37:30;26.10;45.20
29539;DHT22;16482;51.046;4.498;2023-09-19T03:39:57;26.00;45.10
29539;DHT22;16482;51.046;4.498;2023-09-19T03:42:23;26.10;45.20
29539;DHT22;16482;51.046;4.498;2023-09-19T03:44:52;26.10;45.10
29539;DHT22;16482;51.046;4.498;2023-09-19T03:47:18;26.00;45.00
29539;DHT22;16482;51.046;4.498;2023-09-19T03:49:47;26.10;45.10
29539;DHT22;16482;51.046;4.498;2023-09-19T03:52:13;26.10;45.00
29539;DHT22;16482;51.046;4.498;2023-09-19T03:54:41;26.00;45.00
29539;DHT22;16482;51.046;4.498;2023-09-19T03:57:08;26.00;45.00
29539;DHT22;16482;51.046;4.498;2023-09-19T03:59:34;26.00;45.10
29539;DHT22;16482;51.046;4.498;2023-09-19T04:02:01;26.00;45.10
29539;DHT22;16482;51.046;4.498;2023-09-19T04:04:27;26.00;45.20
29539;DHT22;16482;51.046;4.498;2023-09-19T04:06:54;26.00;45.20
29539;DHT22;16482;51.046;4.498;2023-09-19T04:09:20;26.00;45.30
29539;DHT22;16482;51.046;4.498;2023-09-19T04:11:46;26.00;45.50
29539;DHT22;16482;51.046;4.498;2023-09-19T04:14:12;26.00;45.50
29539;DHT22;16482;51.046;4.498;2023-09-19T04:16:38;26.00;45.40
29539;DHT22;16482;51.046;4.498;2023-09-19T04:19:04;26.00;45.40
29539;DHT22;16482;51.046;4.498;2023-09-19T04:21:31;26.00;46.00
29539;DHT22;16482;51.046;4.498;2023-09-19T04:23:57;26.00;46.10
29539;DHT22;16482;51.046;4.498;2023-09-19T04:26:23;25.90;45.50
29539;DHT22;16482;51.046;4.498;2023-09-19T04:28:52;26.00;45.50
29539;DHT22;16482;51.046;4.498;2023-09-19T04:31:17;26.00;45.40
29539;DHT22;16482;51.046;4.498;2023-09-19T04:33:45;26.00;45.50
29539;DHT22;16482;51.046;4.498;2023-09-19T04:36:10;26.00;45.50
29539;DHT22;16482;51.046;4.498;2023-09-19T04:38:38;26.00;45.50
29539;DHT22;16482;51.046;4.498;2023-09-19T04:41:04;26.00;45.60
29539;DHT22;16482;51.046;4.498;2023-09-19T04:43:30;26.00;46.10
29539;DHT22;16482;51.046;4.498;2023-09-19T04:45:56;26.00;45.50
29539;DHT22;16482;51.046;4.498;2023-09-19T04:48:24;26.00;45.60
29539;DHT22;16482;51.046;4.498;2023-09-19T04:50:50;26.00;45.50
29539;DHT22;16482;51.046;4.498;2023-09-19T04:53:20;26.00;45.50
29539;DHT22;16482;51.046;4.498;2023-09-19T04:55:51;26.00;45.50
29539;DHT22;16482;51.046;4.498;2023-09-19T04:58:18;26.00;45.50
29539;DHT22;16482;51.046;4.498;2023-09-19T05:00:45;26.00;46.20
29539;DHT22;16482;51.046;4.498;2023-09-19T05:03:11;26.00;45.50
29539;DHT22;16482;51.046;4.498;2023-09-19T05:05:39;26.00;45.60
29539;DHT22;16482;51.046;4.498;2023-09-19T05:08:08;25.90;45.60
29539;DHT22;16482;51.046;4.498;2023-09-19T05:10:35;25.90;45.60
29539;DHT22;16482;51.046;4.498;2023-09-19T05:13:10;25.90;45.50
29539;DHT22;16482;51.046;4.498;2023-09-19T05:15:39;25.90;45.50
29539;DHT22;16482;51.046;4.498;2023-09-19T05:18:11;25.90;45.60
29539;DHT22;16482;51.046;4.498;2023-09-19T05:20:36;25.90;45.60
29539;DHT22;16482;51.046;4.498;2023-09-19T05:23:05;26.00;45.60
29539;DHT22;16482;51.046;4.498;2023-09-19T05:25:35;25.90;45.40
29539;DHT22;16482;51.046;4.498;2023-09-19T05:28:08;26.00;45.50
29539;DHT22;16482;51.046;4.498;2023-09-19T05:30:35;26.00;45.50
29539;DHT22;16482;51.046;4.498;2023-09-19T05:33:05;25.90;45.50
29539;DHT22;16482;51.046;4.498;2023-09-19T05:35:31;25.90;45.50
29539;DHT22;16482;51.046;4.498;2023-09-19T05:37:58;26.00;45.60
29539;DHT22;16482;51.046;4.498;2023-09-19T05:40:25;25.90;45.60
29539;DHT22;16482;51.046;4.498;2023-09-19T05:42:50;25.90;45.60
29539;DHT22;16482;51.046;4.498;2023-09-19T05:45:16;25.90;45.60
29539;DHT22;16482;51.046;4.498;2023-09-19T05:47:50;25.90;45.60
29539;DHT22;16482;51.046;4.498;2023-09-19T05:50:20;25.90;45.60
29539;DHT22;16482;51.046;4.498;2023-09-19T05:52:52;25.90;45.60
29539;DHT22;16482;51.046;4.498;2023-09-19T05:55:18;25.90;45.60
29539;DHT22;16482;51.046;4.498;2023-09-19T05:57:52;25.80;45.60
29539;DHT22;16482;51.046;4.498;2023-09-19T06:00:21;25.90;45.60
29539;DHT22;16482;51.046;4.498;2023-09-19T06:02:54;25.90;45.60
29539;DHT22;16482;51.046;4.498;2023-09-19T06:05:20;25.90;45.50
29539;DHT22;16482;51.046;4.498;2023-09-19T06:07:47;25.90;45.60
29539;DHT22;16482;51.046;4.498;2023-09-19T06:10:13;25.90;45.60
29539;DHT22;16482;51.046;4.498;2023-09-19T06:12:41;25.90;45.60
29539;DHT22;16482;51.046;4.498;2023-09-19T06:15:11;25.90;45.50
29539;DHT22;16482;51.046;4.498;2023-09-19T06:17:49;25.90;45.60
29539;DHT22;16482;51.046;4.498;2023-09-19T06:20:16;25.90;45.60
29539;DHT22;16482;51.046;4.498;2023-09-19T06:22:46;25.90;45.60
29539;DHT22;16482;51.046;4.498;2023-09-19T06:25:13;25.90;45.80
29539;DHT22;16482;51.046;4.498;2023-09-19T06:27:42;25.90;45.60
29539;DHT22;16482;51.046;4.498;2023-09-19T06:30:09;25.90;45.70
29539;DHT22;16482;51.046;4.498;2023-09-19T06:32:35;25.90;45.60
29539;DHT22;16482;51.046;4.498;2023-09-19T06:35:01;25.90;45.60
29539;DHT22;16482;51.046;4.498;2023-09-19T06:37:29;25.90;45.60
29539;DHT22;16482;51.046;4.498;2023-09-19T06:39:55;26.00;45.60
29539;DHT22;16482;51.046;4.498;2023-09-19T06:42:23;25.90;45.70
29539;DHT22;16482;51.046;4.498;2023-09-19T06:44:49;25.90;45.60
29539;DHT22;16482;51.046;4.498;2023-09-19T06:47:21;25.90;45.70
29539;DHT22;16482;51.046;4.498;2023-09-19T06:49:49;25.90;45.70
29539;DHT22;16482;51.046;4.498;2023-09-19T06:52:21;25.90;45.70
29539;DHT22;16482;51.046;4.498;2023-09-19T06:54:50;26.00;45.70
29539;DHT22;16482;51.046;4.498;2023-09-19T06:57:20;26.00;45.80
29539;DHT22;16482;51.046;4.498;2023-09-19T06:59:48;26.00;45.70
29539;DHT22;16482;51.046;4.498;2023-09-19T07:02:20;26.00;45.60
29539;DHT22;16482;51.046;4.498;2023-09-19T07:04:50;26.00;45.70
29539;DHT22;16482;51.046;4.498;2023-09-19T07:07:16;26.00;46.20
29539;DHT22;16482;51.046;4.498;2023-09-19T07:09:49;26.00;45.70
29539;DHT22;16482;51.046;4.498;2023-09-19T07:12:16;26.00;45.70
29539;DHT22;16482;51.046;4.498;2023-09-19T07:14:43;26.00;45.70
29539;DHT22;16482;51.046;4.498;2023-09-19T07:17:09;26.00;45.60
29539;DHT22;16482;51.046;4.498;2023-09-19T07:19:35;26.00;45.70
29539;DHT22;16482;51.046;4.498;2023-09-19T07:22:01;26.00;45.60
29539;DHT22;16482;51.046;4.498;2023-09-19T07:24:29;26.00;45.60
29539;DHT22;16482;51.046;4.498;2023-09-19T07:26:56;26.10;45.60
29539;DHT22;16482;51.046;4.498;2023-09-19T07:29:22;26.10;45.60
29539;DHT22;16482;51.046;4.498;2023-09-19T07:31:48;26.00;45.60
29539;DHT22;16482;51.046;4.498;2023-09-19T07:34:15;26.10;45.60
29539;DHT22;16482;51.046;4.498;2023-09-19T07:36:41;26.10;45.60
29539;DHT22;16482;51.046;4.498;2023-09-19T07:39:08;26.10;45.60
29539;DHT22;16482;51.046;4.498;2023-09-19T07:41:33;26.00;45.60
29539;DHT22;16482;51.046;4.498;2023-09-19T07:43:59;26.10;45.50
29539;DHT22;16482;51.046;4.498;2023-09-19T07:46:26;26.10;45.50
29539;DHT22;16482;51.046;4.498;2023-09-19T07:48:52;26.10;46.00
29539;DHT22;16482;51.046;4.498;2023-09-19T07:51:18;26.10;45.50
29539;DHT22;16482;51.046;4.498;2023-09-19T07:53:44;26.20;45.50
29539;DHT22;16482;51.046;4.498;2023-09-19T07:56:10;26.10;45.60
29539;DHT22;16482;51.046;4.498;2023-09-19T07:58:39;26.10;45.70
29539;DHT22;16482;51.046;4.498;2023-09-19T08:01:07;26.10;45.70
29539;DHT22;16482;51.046;4.498;2023-09-19T08:03:33;26.10;45.60
29539;DHT22;16482;51.046;4.498;2023-09-19T08:06:00;26.10;45.80
29539;DHT22;16482;51.046;4.498;2023-09-19T08:08:27;26.10;45.60
29539;DHT22;16482;51.046;4.498;2023-09-19T08:10:56;26.10;45.60
29539;DHT22;16482;51.046;4.498;2023-09-19T08:13:26;26.20;45.70
29539;DHT22;16482;51.046;4.498;2023-09-19T08:15:52;26.20;45.90
29539;DHT22;16482;51.046;4.498;2023-09-19T08:18:20;26.20;45.90
29539;DHT22;16482;51.046;4.498;2023-09-19T08:20:50;26.10;46.00
29539;DHT22;16482;51.046;4.498;2023-09-19T08:23:16;26.10;46.10
29539;DHT22;16482;51.046;4.498;2023-09-19T08:25:46;26.20;46.10
29539;DHT22;16482;51.046;4.498;2023-09-19T08:28:11;26.20;46.00
29539;DHT22;16482;51.046;4.498;2023-09-19T08:30:39;26.20;46.20
29539;DHT22;16482;51.046;4.498;2023-09-19T08:33:07;26.20;46.20
29539;DHT22;16482;51.046;4.498;2023-09-19T08:35:33;26.20;46.20
29539;DHT22;16482;51.046;4.498;2023-09-19T08:38:00;26.20;46.20
29539;DHT22;16482;51.046;4.498;2023-09-19T08:40:30;26.20;46.20
29539;DHT22;16482;51.046;4.498;2023-09-19T08:42:59;26.20;46.20
29539;DHT22;16482;51.046;4.498;2023-09-19T08:45:26;26.20;46.30
29539;DHT22;16482;51.046;4.498;2023-09-19T08:51:02;26.20;46.10
29539;DHT22;16482;51.046;4.498;2023-09-19T08:53:43;26.20;46.30
29539;DHT22;16482;51.046;4.498;2023-09-19T08:56:17;26.10;46.10
29539;DHT22;16482;51.046;4.498;2023-09-19T08:58:51;26.20;46.30
29539;DHT22;16482;51.046;4.498;2023-09-19T09:01:20;26.10;46.30
29539;DHT22;16482;51.046;4.498;2023-09-19T09:03:55;26.10;46.30
29539;DHT22;16482;51.046;4.498;2023-09-19T09:06:24;26.20;46.00
29539;DHT22;16482;51.046;4.498;2023-09-19T09:08:53;26.20;46.20
29539;DHT22;16482;51.046;4.498;2023-09-19T09:11:28;26.20;46.20
29539;DHT22;16482;51.046;4.498;2023-09-19T09:13:54;26.20;46.30
29539;DHT22;16482;51.046;4.498;2023-09-19T09:16:23;26.20;46.30
29539;DHT22;16482;51.046;4.498;2023-09-19T09:18:51;26.20;46.50
29539;DHT22;16482;51.046;4.498;2023-09-19T09:21:20;26.20;46.20
29539;DHT22;16482;51.046;4.498;2023-09-19T09:23:47;26.30;46.30
29539;DHT22;16482;51.046;4.498;2023-09-19T09:26:14;26.40;46.20
29539;DHT22;16482;51.046;4.498;2023-09-19T09:28:46;26.40;46.10
29539;DHT22;16482;51.046;4.498;2023-09-19T09:31:25;26.40;46.20
29539;DHT22;16482;51.046;4.498;2023-09-19T09:33:55;26.40;46.20
29539;DHT22;16482;51.046;4.498;2023-09-19T09:36:37;26.40;46.20
29539;DHT22;16482;51.046;4.498;2023-09-19T09:39:03;26.40;46.10
29539;DHT22;16482;51.046;4.498;2023-09-19T09:41:44;26.40;46.20
29539;DHT22;16482;51.046;4.498;2023-09-19T09:44:17;26.40;46.10
29539;DHT22;16482;51.046;4.498;2023-09-19T09:46:45;26.50;46.10
29539;DHT22;16482;51.046;4.498;2023-09-19T09:49:27;26.50;45.90
29539;DHT22;16482;51.046;4.498;2023-09-19T09:52:04;26.50;45.90
29539;DHT22;16482;51.046;4.498;2023-09-19T09:54:34;26.50;45.90
29539;DHT22;16482;51.046;4.498;2023-09-19T09:57:07;26.50;45.90
29539;DHT22;16482;51.046;4.498;2023-09-19T09:59:55;26.50;45.90
29539;DHT22;16482;51.046;4.498;2023-09-19T10:02:34;26.50;45.80
29539;DHT22;16482;51.046;4.498;2023-09-19T10:05:16;26.50;45.90
29539;DHT22;16482;51.046;4.498;2023-09-19T10:08:11;26.50;45.90
29539;DHT22;16482;51.046;4.498;2023-09-19T10:10:44;26.50;46.00
29539;DHT22;16482;51.046;4.498;2023-09-19T10:13:20;26.50;45.90
29539;DHT22;16482;51.046;4.498;2023-09-19T10:15:51;26.50;46.00
29539;DHT22;16482;51.046;4.498;2023-09-19T10:18:22;26.50;46.00
29539;DHT22;16482;51.046;4.498;2023-09-19T10:20:49;26.50;45.90
29539;DHT22;16482;51.046;4.498;2023-09-19T10:23:18;26.50;45.90
29539;DHT22;16482;51.046;4.498;2023-09-19T10:25:52;26.50;46.00
29539;DHT22;16482;51.046;4.498;2023-09-19T10:28:19;26.40;46.10
29539;DHT22;16482;51.046;4.498;2023-09-19T10:30:49;26.40;46.10
29539;DHT22;16482;51.046;4.498;2023-09-19T10:33:20;26.50;45.90
29539;DHT22;16482;51.046;4.498;2023-09-19T10:35:48;26.40;45.90
29539;DHT22;16482;51.046;4.498;2023-09-19T10:38:22;26.40;45.90
29539;DHT22;16482;51.046;4.498;2023-09-19T10:40:53;26.40;45.80
29539;DHT22;16482;51.046;4.498;2023-09-19T10:43:21;26.40;45.80
29539;DHT22;16482;51.046;4.498;2023-09-19T10:45:48;26.40;46.10
29539;DHT22;16482;51.046;4.498;2023-09-19T10:48:18;26.40;45.90
29539;DHT22;16482;51.046;4.498;2023-09-19T10:53:47;26.40;46.10
29539;DHT22;16482;51.046;4.498;2023-09-19T10:56:29;26.40;46.00
29539;DHT22;16482;51.046;4.498;2023-09-19T10:59:10;26.40;45.70
29539;DHT22;16482;51.046;4.498;2023-09-19T11:01:45;26.40;45.90
29539;DHT22;16482;51.046;4.498;2023-09-19T11:04:23;26.40;45.70
29539;DHT22;16482;51.046;4.498;2023-09-19T11:07:09;26.40;45.90
29539;DHT22;16482;51.046;4.498;2023-09-19T11:09:54;26.40;45.60
29539;DHT22;16482;51.046;4.498;2023-09-19T11:15:03;26.40;45.70
29539;DHT22;16482;51.046;4.498;2023-09-19T11:17:43;26.40;45.90
29539;DHT22;16482;51.046;4.498;2023-09-19T11:20:19;26.40;45.90
29539;DHT22;16482;51.046;4.498;2023-09-19T11:30:52;26.70;45.60
29539;DHT22;16482;51.046;4.498;2023-09-19T11:33:25;26.70;45.60
29539;DHT22;16482;51.046;4.498;2023-09-19T11:36:14;26.70;45.70
29539;DHT22;16482;51.046;4.498;2023-09-19T11:43:51;26.80;45.80
29539;DHT22;16482;51.046;4.498;2023-09-19T11:46:20;26.90;45.40
29539;DHT22;16482;51.046;4.498;2023-09-19T11:48:52;26.90;45.50
29539;DHT22;16482;51.046;4.498;2023-09-19T11:51:22;26.90;45.60
29539;DHT22;16482;51.046;4.498;2023-09-19T11:53:50;26.80;45.60
29539;DHT22;16482;51.046;4.498;2023-09-19T11:56:23;26.80;45.80
29539;DHT22;16482;51.046;4.498;2023-09-19T11:58:52;26.80;45.90
29539;DHT22;16482;51.046;4.498;2023-09-19T12:01:25;26.80;46.00
29539;DHT22;16482;51.046;4.498;2023-09-19T12:03:55;26.80;46.00
29539;DHT22;16482;51.046;4.498;2023-09-19T12:06:25;26.70;45.60
29539;DHT22;16482;51.046;4.498;2023-09-19T12:08:59;26.70;45.80
29539;DHT22;16482;51.046;4.498;2023-09-19T12:11:30;26.70;46.10
29539;DHT22;16482;51.046;4.498;2023-09-19T12:14:01;26.70;46.00
29539;DHT22;16482;51.046;4.498;2023-09-19T12:16:31;26.70;46.00
29539;DHT22;16482;51.046;4.498;2023-09-19T12:19:17;26.70;46.10
29539;DHT22;16482;51.046;4.498;2023-09-19T12:21:54;26.70;45.80
29539;DHT22;16482;51.046;4.498;2023-09-19T12:24:20;26.70;45.70
29539;DHT22;16482;51.046;4.498;2023-09-19T12:26:46;26.70;46.00
29539;DHT22;16482;51.046;4.498;2023-09-19T12:29:21;26.70;46.10
29539;DHT22;16482;51.046;4.498;2023-09-19T12:31:51;26.80;46.00
29539;DHT22;16482;51.046;4.498;2023-09-19T12:34:20;26.70;45.90
29539;DHT22;16482;51.046;4.498;2023-09-19T12:36:47;26.70;46.00
29539;DHT22;16482;51.046;4.498;2023-09-19T12:39:23;26.70;46.00
29539;DHT22;16482;51.046;4.498;2023-09-19T12:41:51;26.70;46.00
29539;DHT22;16482;51.046;4.498;2023-09-19T12:44:17;26.60;45.90
29539;DHT22;16482;51.046;4.498;2023-09-19T12:46:44;26.70;45.90
29539;DHT22;16482;51.046;4.498;2023-09-19T12:49:19;26.70;45.90
29539;DHT22;16482;51.046;4.498;2023-09-19T12:51:46;26.70;46.10
29539;DHT22;16482;51.046;4.498;2023-09-19T12:54:13;26.70;46.00
29539;DHT22;16482;51.046;4.498;2023-09-19T12:56:44;26.60;46.00
29539;DHT22;16482;51.046;4.498;2023-09-19T12:59:14;26.70;46.00
29539;DHT22;16482;51.046;4.498;2023-09-19T13:01:41;26.60;45.90
29539;DHT22;16482;51.046;4.498;2023-09-19T13:04:18;26.60;46.00
29539;DHT22;16482;51.046;4.498;2023-09-19T13:06:45;26.60;46.00
29539;DHT22;16482;51.046;4.498;2023-09-19T13:09:14;26.60;46.00
29539;DHT22;16482;51.046;4.498;2023-09-19T13:11:41;26.60;46.00
29539;DHT22;16482;51.046;4.498;2023-09-19T13:17:05;26.60;45.90
29539;DHT22;16482;51.046;4.498;2023-09-19T13:19:52;26.60;45.90
29539;DHT22;16482;51.046;4.498;2023-09-19T13:22:42;26.60;46.00
29539;DHT22;16482;51.046;4.498;2023-09-19T13:25:10;26.60;45.90
29539;DHT22;16482;51.046;4.498;2023-09-19T13:27:41;26.50;46.10
29539;DHT22;16482;51.046;4.498;2023-09-19T13:30:07;26.50;46.10
29539;DHT22;16482;51.046;4.498;2023-09-19T13:32:34;26.50;45.90
29539;DHT22;16482;51.046;4.498;2023-09-19T13:35:00;26.50;46.10
29539;DHT22;16482;51.046;4.498;2023-09-19T13:37:28;26.50;46.20
29539;DHT22;16482;51.046;4.498;2023-09-19T13:39:55;26.50;46.20
29539;DHT22;16482;51.046;4.498;2023-09-19T13:42:24;26.50;45.80
29539;DHT22;16482;51.046;4.498;2023-09-19T13:44:50;26.50;46.00
29539;DHT22;16482;51.046;4.498;2023-09-19T13:47:19;26.50;46.00
29539;DHT22;16482;51.046;4.498;2023-09-19T13:49:53;26.60;46.10
29539;DHT22;16482;51.046;4.498;2023-09-19T13:52:22;26.50;46.00
29539;DHT22;16482;51.046;4.498;2023-09-19T13:54:51;26.60;46.10
29539;DHT22;16482;51.046;4.498;2023-09-19T13:57:18;26.60;46.00
29539;DHT22;16482;51.046;4.498;2023-09-19T13:59:44;26.60;46.00
29539;DHT22;16482;51.046;4.498;2023-09-19T14:02:22;26.60;46.00
29539;DHT22;16482;51.046;4.498;2023-09-19T14:04:52;26.60;46.00
29539;DHT22;16482;51.046;4.498;2023-09-19T14:07:21;26.60;46.00
29539;DHT22;16482;51.046;4.498;2023-09-19T14:09:47;26.70;46.10
29539;DHT22;16482;51.046;4.498;2023-09-19T14:12:20;26.60;46.00
29539;DHT22;16482;51.046;4.498;2023-09-19T14:14:51;26.60;46.10
29539;DHT22;16482;51.046;4.498;2023-09-19T14:17:19;26.60;46.10
29539;DHT22;16482;51.046;4.498;2023-09-19T14:19:45;26.60;46.10
29539;DHT22;16482;51.046;4.498;2023-09-19T14:22:14;26.60;46.20
29539;DHT22;16482;51.046;4.498;2023-09-19T14:24:54;26.70;46.00
29539;DHT22;16482;51.046;4.498;2023-09-19T14:27:22;26.60;46.10
29539;DHT22;16482;51.046;4.498;2023-09-19T14:29:51;26.60;46.20
29539;DHT22;16482;51.046;4.498;2023-09-19T14:32:20;26.60;46.20
29539;DHT22;16482;51.046;4.498;2023-09-19T14:34:46;26.60;46.00
29539;DHT22;16482;51.046;4.498;2023-09-19T14:37:12;26.60;46.10
29539;DHT22;16482;51.046;4.498;2023-09-19T14:39:38;26.60;46.10
29539;DHT22;16482;51.046;4.498;2023-09-19T14:42:05;26.70;46.10
29539;DHT22;16482;51.046;4.498;2023-09-19T14:44:31;26.60;46.20
29539;DHT22;16482;51.046;4.498;2023-09-19T14:46:57;26.60;46.10
29539;DHT22;16482;51.046;4.498;2023-09-19T14:49:24;26.60;46.00
29539;DHT22;16482;51.046;4.498;2023-09-19T14:51:52;26.60;46.10
29539;DHT22;16482;51.046;4.498;2023-09-19T14:54:18;26.60;46.10
29539;DHT22;16482;51.046;4.498;2023-09-19T14:56:44;26.60;46.20
29539;DHT22;16482;51.046;4.498;2023-09-19T14:59:10;26.60;46.00
29539;DHT22;16482;51.046;4.498;2023-09-19T15:01:36;26.60;46.00
29539;DHT22;16482;51.046;4.498;2023-09-19T15:04:03;26.60;45.90
29539;DHT22;16482;51.046;4.498;2023-09-19T15:06:37;26.60;45.80
29539;DHT22;16482;51.046;4.498;2023-09-19T15:09:03;26.60;45.70
29539;DHT22;16482;51.046;4.498;2023-09-19T15:11:30;26.60;45.80
29539;DHT22;16482;51.046;4.498;2023-09-19T15:13:58;26.60;45.80
29539;DHT22;16482;51.046;4.498;2023-09-19T15:16:24;26.60;45.60
29539;DHT22;16482;51.046;4.498;2023-09-19T15:18:53;26.60;45.80
29539;DHT22;16482;51.046;4.498;2023-09-19T15:21:20;26.60;45.70
29539;DHT22;16482;51.046;4.498;2023-09-19T15:23:46;26.60;45.70
29539;DHT22;16482;51.046;4.498;2023-09-19T15:26:14;26.60;45.70
29539;DHT22;16482;51.046;4.498;2023-09-19T15:28:46;26.50;45.60
29539;DHT22;16482;51.046;4.498;2023-09-19T15:31:12;26.50;45.70
29539;DHT22;16482;51.046;4.498;2023-09-19T15:33:39;26.50;45.80
29539;DHT22;16482;51.046;4.498;2023-09-19T15:36:06;26.50;45.90
29539;DHT22;16482;51.046;4.498;2023-09-19T15:39:04;26.50;45.70
29539;DHT22;16482;51.046;4.498;2023-09-19T15:41:35;26.50;45.60
29539;DHT22;16482;51.046;4.498;2023-09-19T15:44:10;26.50;45.60
29539;DHT22;16482;51.046;4.498;2023-09-19T15:46:36;26.40;45.80
29539;DHT22;16482;51.046;4.498;2023-09-19T15:49:03;26.40;46.00
29539;DHT22;16482;51.046;4.498;2023-09-19T15:51:31;26.50;45.70
29539;DHT22;16482;51.046;4.498;2023-09-19T15:54:02;26.50;45.90
29539;DHT22;16482;51.046;4.498;2023-09-19T15:56:35;26.40;45.90
29539;DHT22;16482;51.046;4.498;2023-09-19T15:59:01;26.40;45.90
29539;DHT22;16482;51.046;4.498;2023-09-19T16:01:30;26.40;46.10
29539;DHT22;16482;51.046;4.498;2023-09-19T16:03:56;26.40;46.20
29539;DHT22;16482;51.046;4.498;2023-09-19T16:06:32;26.40;46.20
29539;DHT22;16482;51.046;4.498;2023-09-19T16:09:00;26.40;46.00
29539;DHT22;16482;51.046;4.498;2023-09-19T16:11:31;26.40;46.10
29539;DHT22;16482;51.046;4.498;2023-09-19T16:13:57;26.40;46.00
29539;DHT22;16482;51.046;4.498;2023-09-19T16:16:25;26.40;46.10
29539;DHT22;16482;51.046;4.498;2023-09-19T16:18:56;26.40;46.10
29539;DHT22;16482;51.046;4.498;2023-09-19T16:21:26;26.40;46.10
29539;DHT22;16482;51.046;4.498;2023-09-19T16:23:57;26.30;46.00